sensor_id;sensor_type;location;lat;lon;timestamp;P1;durP1;ratioP1;P2;durP2;ratioP2
7807;SDS011;3949;49.254;8.894;2023-09-08T00:00:49;5.07;;;4.57;;
7807;SDS011;3949;49.254;8.894;2023-09-08T00:03:15;5.00;;;4.50;;
7807;SDS011;3949;49.254;8.894;2023-09-08T00:05:41;4.93;;;4.43;;
7807;SDS011;3949;49.254;8.894;2023-09-08T00:08:07;4.63;;;4.13;;
7807;SDS011;3949;49.254;8.894;2023-09-08T00:10:33;6.27;;;5.17;;
7807;SDS011;3949;49.254;8.894;2023-09-08T00:12:59;6.53;;;4.60;;
7807;SDS011;3949;49.254;8.894;2023-09-08T00:15:25;5.33;;;4.83;;
7807;SDS011;3949;49.254;8.894;2023-09-08T00:17:51;5.03;;;4.53;;
7807;SDS011;3949;49.254;8.894;2023-09-08T00:20:17;5.03;;;4.53;;
7807;SDS011;3949;49.254;8.894;2023-09-08T00:22:43;5.80;;;4.47;;
7807;SDS011;3949;49.254;8.894;2023-09-08T00:25:09;5.03;;;4.20;;
7807;SDS011;3949;49.254;8.894;2023-09-08T00:27:35;4.93;;;4.43;;
7807;SDS011;3949;49.254;8.894;2023-09-08T00:30:01;5.30;;;4.80;;
7807;SDS011;3949;49.254;8.894;2023-09-08T00:32:28;6.37;;;4.53;;
7807;SDS011;3949;49.254;8.894;2023-09-08T00:34:54;4.80;;;4.40;;
7807;SDS011;3949;49.254;8.894;2023-09-08T00:37:20;4.77;;;4.17;;
7807;SDS011;3949;49.254;8.894;2023-09-08T00:39:46;4.67;;;4.13;;
7807;SDS011;3949;49.254;8.894;2023-09-08T00:42:12;5.10;;;4.60;;
7807;SDS011;3949;49.254;8.894;2023-09-08T00:44:38;5.27;;;4.63;;
7807;SDS011;3949;49.254;8.894;2023-09-08T00:47:04;5.13;;;4.63;;
7807;SDS011;3949;49.254;8.894;2023-09-08T00:49:30;5.23;;;4.73;;
7807;SDS011;3949;49.254;8.894;2023-09-08T00:51:56;5.57;;;4.93;;
7807;SDS011;3949;49.254;8.894;2023-09-08T00:54:22;5.83;;;5.00;;
7807;SDS011;3949;49.254;8.894;2023-09-08T00:56:48;6.13;;;5.13;;
7807;SDS011;3949;49.254;8.894;2023-09-08T00:59:18;4.90;;;4.50;;
7807;SDS011;3949;49.254;8.894;2023-09-08T01:01:44;5.60;;;4.60;;
7807;SDS011;3949;49.254;8.894;2023-09-08T01:04:10;4.97;;;4.47;;
7807;SDS011;3949;49.254;8.894;2023-09-08T01:06:37;4.83;;;4.43;;
7807;SDS011;3949;49.254;8.894;2023-09-08T01:09:03;6.03;;;5.03;;
7807;SDS011;3949;49.254;8.894;2023-09-08T01:11:29;5.80;;;4.27;;
7807;SDS011;3949;49.254;8.894;2023-09-08T01:13:56;4.87;;;4.40;;
7807;SDS011;3949;49.254;8.894;2023-09-08T01:16:22;5.13;;;4.70;;
7807;SDS011;3949;49.254;8.894;2023-09-08T01:18:47;5.00;;;4.60;;
7807;SDS011;3949;49.254;8.894;2023-09-08T01:26:10;5.33;;;4.83;;
7807;SDS011;3949;49.254;8.894;2023-09-08T01:28:39;5.20;;;4.70;;
7807;SDS011;3949;49.254;8.894;2023-09-08T01:31:05;6.10;;;4.87;;
7807;SDS011;3949;49.254;8.894;2023-09-08T01:33:31;5.80;;;5.30;;
7807;SDS011;3949;49.254;8.894;2023-09-08T01:35:57;8.73;;;5.17;;
7807;SDS011;3949;49.254;8.894;2023-09-08T01:38:24;7.70;;;5.40;;
7807;SDS011;3949;49.254;8.894;2023-09-08T01:40:50;6.00;;;5.17;;
7807;SDS011;3949;49.254;8.894;2023-09-08T01:43:16;5.87;;;5.30;;
7807;SDS011;3949;49.254;8.894;2023-09-08T01:45:42;5.20;;;4.70;;
7807;SDS011;3949;49.254;8.894;2023-09-08T01:48:08;5.47;;;4.93;;
7807;SDS011;3949;49.254;8.894;2023-09-08T01:50:34;5.67;;;5.07;;
7807;SDS011;3949;49.254;8.894;2023-09-08T01:53:00;5.23;;;4.73;;
7807;SDS011;3949;49.254;8.894;2023-09-08T01:55:26;5.77;;;5.20;;
7807;SDS011;3949;49.254;8.894;2023-09-08T01:57:51;5.73;;;4.83;;
7807;SDS011;3949;49.254;8.894;2023-09-08T02:00:17;5.30;;;4.47;;
7807;SDS011;3949;49.254;8.894;2023-09-08T02:02:43;4.93;;;4.43;;
7807;SDS011;3949;49.254;8.894;2023-09-08T02:05:10;5.40;;;4.90;;
7807;SDS011;3949;49.254;8.894;2023-09-08T02:07:35;4.97;;;4.57;;
7807;SDS011;3949;49.254;8.894;2023-09-08T02:10:02;5.63;;;5.03;;
7807;SDS011;3949;49.254;8.894;2023-09-08T02:12:27;5.63;;;5.10;;
7807;SDS011;3949;49.254;8.894;2023-09-08T02:14:53;5.57;;;4.57;;
7807;SDS011;3949;49.254;8.894;2023-09-08T02:17:20;6.10;;;5.50;;
7807;SDS011;3949;49.254;8.894;2023-09-08T02:19:46;7.03;;;5.73;;
7807;SDS011;3949;49.254;8.894;2023-09-08T02:22:12;6.17;;;5.10;;
7807;SDS011;3949;49.254;8.894;2023-09-08T02:24:38;5.87;;;5.27;;
7807;SDS011;3949;49.254;8.894;2023-09-08T02:27:04;7.70;;;5.30;;
7807;SDS011;3949;49.254;8.894;2023-09-08T02:29:30;6.23;;;5.57;;
7807;SDS011;3949;49.254;8.894;2023-09-08T02:31:57;6.13;;;5.63;;
7807;SDS011;3949;49.254;8.894;2023-09-08T02:34:23;6.90;;;5.57;;
7807;SDS011;3949;49.254;8.894;2023-09-08T02:36:48;8.73;;;6.20;;
7807;SDS011;3949;49.254;8.894;2023-09-08T02:39:15;8.00;;;5.87;;
7807;SDS011;3949;49.254;8.894;2023-09-08T02:41:41;7.90;;;6.60;;
7807;SDS011;3949;49.254;8.894;2023-09-08T02:44:08;8.47;;;7.00;;
7807;SDS011;3949;49.254;8.894;2023-09-08T02:46:34;8.37;;;7.33;;
7807;SDS011;3949;49.254;8.894;2023-09-08T02:49:00;7.17;;;6.47;;
7807;SDS011;3949;49.254;8.894;2023-09-08T02:51:26;6.73;;;6.13;;
7807;SDS011;3949;49.254;8.894;2023-09-08T02:53:52;8.80;;;6.27;;
7807;SDS011;3949;49.254;8.894;2023-09-08T02:56:18;8.07;;;6.27;;
7807;SDS011;3949;49.254;8.894;2023-09-08T02:58:44;9.80;;;8.80;;
7807;SDS011;3949;49.254;8.894;2023-09-08T03:03:37;7.10;;;6.13;;
7807;SDS011;3949;49.254;8.894;2023-09-08T03:06:03;8.20;;;6.33;;
7807;SDS011;3949;49.254;8.894;2023-09-08T03:08:29;6.67;;;5.87;;
7807;SDS011;3949;49.254;8.894;2023-09-08T03:10:56;7.07;;;6.27;;
7807;SDS011;3949;49.254;8.894;2023-09-08T03:13:22;6.53;;;5.93;;
7807;SDS011;3949;49.254;8.894;2023-09-08T03:15:48;6.33;;;5.77;;
7807;SDS011;3949;49.254;8.894;2023-09-08T03:18:14;6.80;;;6.17;;
7807;SDS011;3949;49.254;8.894;2023-09-08T03:20:40;5.90;;;5.40;;
7807;SDS011;3949;49.254;8.894;2023-09-08T03:23:06;7.00;;;6.30;;
7807;SDS011;3949;49.254;8.894;2023-09-08T03:25:32;6.93;;;5.60;;
7807;SDS011;3949;49.254;8.894;2023-09-08T03:27:58;7.03;;;5.77;;
7807;SDS011;3949;49.254;8.894;2023-09-08T03:30:24;5.93;;;5.40;;
7807;SDS011;3949;49.254;8.894;2023-09-08T03:32:50;5.87;;;5.37;;
7807;SDS011;3949;49.254;8.894;2023-09-08T03:35:16;5.77;;;5.13;;
7807;SDS011;3949;49.254;8.894;2023-09-08T03:37:42;6.33;;;5.70;;
7807;SDS011;3949;49.254;8.894;2023-09-08T03:40:08;6.30;;;5.70;;
7807;SDS011;3949;49.254;8.894;2023-09-08T03:42:34;7.17;;;5.97;;
7807;SDS011;3949;49.254;8.894;2023-09-08T03:45:00;6.93;;;6.23;;
7807;SDS011;3949;49.254;8.894;2023-09-08T03:47:26;7.90;;;6.17;;
7807;SDS011;3949;49.254;8.894;2023-09-08T03:49:52;5.63;;;5.00;;
7807;SDS011;3949;49.254;8.894;2023-09-08T03:52:18;6.27;;;5.50;;
7807;SDS011;3949;49.254;8.894;2023-09-08T03:54:44;6.20;;;5.07;;
7807;SDS011;3949;49.254;8.894;2023-09-08T03:57:11;5.87;;;5.37;;
7807;SDS011;3949;49.254;8.894;2023-09-08T03:59:37;5.20;;;4.80;;
7807;SDS011;3949;49.254;8.894;2023-09-08T04:02:03;5.90;;;5.40;;
7807;SDS011;3949;49.254;8.894;2023-09-08T04:04:29;7.00;;;5.50;;
7807;SDS011;3949;49.254;8.894;2023-09-08T04:06:55;6.10;;;5.47;;
7807;SDS011;3949;49.254;8.894;2023-09-08T04:09:21;6.50;;;5.40;;
7807;SDS011;3949;49.254;8.894;2023-09-08T04:11:47;6.17;;;5.67;;
7807;SDS011;3949;49.254;8.894;2023-09-08T04:14:13;6.60;;;5.90;;
7807;SDS011;3949;49.254;8.894;2023-09-08T04:16:39;6.47;;;5.87;;
7807;SDS011;3949;49.254;8.894;2023-09-08T04:19:04;6.20;;;5.60;;
7807;SDS011;3949;49.254;8.894;2023-09-08T04:21:30;6.30;;;5.67;;
7807;SDS011;3949;49.254;8.894;2023-09-08T04:23:56;6.60;;;6.00;;
7807;SDS011;3949;49.254;8.894;2023-09-08T04:26:22;10.90;;;8.37;;
7807;SDS011;3949;49.254;8.894;2023-09-08T04:28:48;11.73;;;9.20;;
7807;SDS011;3949;49.254;8.894;2023-09-08T04:31:14;10.47;;;8.83;;
7807;SDS011;3949;49.254;8.894;2023-09-08T04:33:42;8.10;;;6.40;;
7807;SDS011;3949;49.254;8.894;2023-09-08T04:36:08;6.60;;;5.73;;
7807;SDS011;3949;49.254;8.894;2023-09-08T04:38:36;7.40;;;6.50;;
7807;SDS011;3949;49.254;8.894;2023-09-08T04:41:02;7.90;;;6.30;;
7807;SDS011;3949;49.254;8.894;2023-09-08T04:43:28;7.43;;;6.77;;
7807;SDS011;3949;49.254;8.894;2023-09-08T04:45:53;6.93;;;6.00;;
7807;SDS011;3949;49.254;8.894;2023-09-08T04:48:19;7.10;;;6.40;;
7807;SDS011;3949;49.254;8.894;2023-09-08T04:50:45;6.97;;;6.33;;
7807;SDS011;3949;49.254;8.894;2023-09-08T04:53:11;6.33;;;5.77;;
7807;SDS011;3949;49.254;8.894;2023-09-08T04:55:37;6.97;;;6.37;;
7807;SDS011;3949;49.254;8.894;2023-09-08T04:58:03;8.20;;;7.03;;
7807;SDS011;3949;49.254;8.894;2023-09-08T05:00:29;7.10;;;6.23;;
7807;SDS011;3949;49.254;8.894;2023-09-08T05:02:56;6.70;;;6.10;;
7807;SDS011;3949;49.254;8.894;2023-09-08T05:05:21;6.57;;;5.87;;
7807;SDS011;3949;49.254;8.894;2023-09-08T05:07:47;7.00;;;6.30;;
7807;SDS011;3949;49.254;8.894;2023-09-08T05:10:13;6.37;;;5.77;;
7807;SDS011;3949;49.254;8.894;2023-09-08T05:12:39;7.77;;;6.13;;
7807;SDS011;3949;49.254;8.894;2023-09-08T05:15:05;7.43;;;6.43;;
7807;SDS011;3949;49.254;8.894;2023-09-08T05:17:35;6.83;;;6.23;;
7807;SDS011;3949;49.254;8.894;2023-09-08T05:20:02;6.93;;;6.23;;
7807;SDS011;3949;49.254;8.894;2023-09-08T05:22:28;6.80;;;6.20;;
7807;SDS011;3949;49.254;8.894;2023-09-08T05:24:54;7.43;;;6.23;;
7807;SDS011;3949;49.254;8.894;2023-09-08T05:27:20;7.07;;;6.47;;
7807;SDS011;3949;49.254;8.894;2023-09-08T05:29:46;6.50;;;5.90;;
7807;SDS011;3949;49.254;8.894;2023-09-08T05:32:12;6.50;;;5.90;;
7807;SDS011;3949;49.254;8.894;2023-09-08T05:34:38;7.23;;;6.00;;
7807;SDS011;3949;49.254;8.894;2023-09-08T05:37:04;7.23;;;6.53;;
7807;SDS011;3949;49.254;8.894;2023-09-08T05:39:30;7.87;;;7.07;;
7807;SDS011;3949;49.254;8.894;2023-09-08T05:41:56;7.30;;;6.60;;
7807;SDS011;3949;49.254;8.894;2023-09-08T05:44:22;6.93;;;6.23;;
7807;SDS011;3949;49.254;8.894;2023-09-08T05:46:50;7.23;;;6.40;;
7807;SDS011;3949;49.254;8.894;2023-09-08T05:49:16;7.50;;;6.67;;
7807;SDS011;3949;49.254;8.894;2023-09-08T05:51:43;8.73;;;7.17;;
7807;SDS011;3949;49.254;8.894;2023-09-08T05:54:09;7.40;;;6.80;;
7807;SDS011;3949;49.254;8.894;2023-09-08T05:56:36;7.73;;;6.70;;
7807;SDS011;3949;49.254;8.894;2023-09-08T05:59:02;6.93;;;6.23;;
7807;SDS011;3949;49.254;8.894;2023-09-08T06:01:28;7.23;;;6.57;;
7807;SDS011;3949;49.254;8.894;2023-09-08T06:03:55;8.23;;;7.23;;
7807;SDS011;3949;49.254;8.894;2023-09-08T06:06:21;8.17;;;6.57;;
7807;SDS011;3949;49.254;8.894;2023-09-08T06:08:47;7.63;;;6.93;;
7807;SDS011;3949;49.254;8.894;2023-09-08T06:11:13;7.27;;;6.57;;
7807;SDS011;3949;49.254;8.894;2023-09-08T06:13:39;7.93;;;6.57;;
7807;SDS011;3949;49.254;8.894;2023-09-08T06:16:05;7.53;;;6.07;;
7807;SDS011;3949;49.254;8.894;2023-09-08T06:18:32;7.70;;;6.40;;
7807;SDS011;3949;49.254;8.894;2023-09-08T06:21:04;7.93;;;6.70;;
7807;SDS011;3949;49.254;8.894;2023-09-08T06:23:30;7.70;;;6.30;;
7807;SDS011;3949;49.254;8.894;2023-09-08T06:25:56;9.17;;;6.77;;
7807;SDS011;3949;49.254;8.894;2023-09-08T06:28:28;7.17;;;6.57;;
7807;SDS011;3949;49.254;8.894;2023-09-08T06:30:54;7.00;;;6.40;;
7807;SDS011;3949;49.254;8.894;2023-09-08T06:33:20;6.77;;;6.13;;
7807;SDS011;3949;49.254;8.894;2023-09-08T06:35:47;22.63;;;10.27;;
7807;SDS011;3949;49.254;8.894;2023-09-08T06:38:13;14.20;;;8.17;;
7807;SDS011;3949;49.254;8.894;2023-09-08T06:40:39;13.57;;;9.33;;
7807;SDS011;3949;49.254;8.894;2023-09-08T06:43:05;8.70;;;7.40;;
7807;SDS011;3949;49.254;8.894;2023-09-08T06:45:31;7.33;;;6.60;;
7807;SDS011;3949;49.254;8.894;2023-09-08T06:47:57;7.23;;;6.40;;
7807;SDS011;3949;49.254;8.894;2023-09-08T06:50:25;8.77;;;6.63;;
7807;SDS011;3949;49.254;8.894;2023-09-08T06:52:51;6.60;;;6.00;;
7807;SDS011;3949;49.254;8.894;2023-09-08T06:55:17;8.60;;;7.67;;
7807;SDS011;3949;49.254;8.894;2023-09-08T06:57:45;6.40;;;5.80;;
7807;SDS011;3949;49.254;8.894;2023-09-08T07:00:12;6.93;;;6.23;;
7807;SDS011;3949;49.254;8.894;2023-09-08T07:02:39;6.87;;;6.27;;
7807;SDS011;3949;49.254;8.894;2023-09-08T07:05:05;8.50;;;7.63;;
7807;SDS011;3949;49.254;8.894;2023-09-08T07:07:34;8.20;;;7.23;;
7807;SDS011;3949;49.254;8.894;2023-09-08T07:10:00;7.13;;;6.20;;
7807;SDS011;3949;49.254;8.894;2023-09-08T07:12:26;5.87;;;5.27;;
7807;SDS011;3949;49.254;8.894;2023-09-08T07:14:53;6.80;;;5.43;;
7807;SDS011;3949;49.254;8.894;2023-09-08T07:17:19;6.33;;;5.13;;
7807;SDS011;3949;49.254;8.894;2023-09-08T07:19:45;5.60;;;5.00;;
7807;SDS011;3949;49.254;8.894;2023-09-08T07:22:11;5.77;;;5.27;;
7807;SDS011;3949;49.254;8.894;2023-09-08T07:24:37;6.60;;;4.87;;
7807;SDS011;3949;49.254;8.894;2023-09-08T07:27:03;5.83;;;5.17;;
7807;SDS011;3949;49.254;8.894;2023-09-08T07:29:29;5.63;;;5.13;;
7807;SDS011;3949;49.254;8.894;2023-09-08T07:31:55;5.53;;;5.03;;
7807;SDS011;3949;49.254;8.894;2023-09-08T07:34:21;5.77;;;5.20;;
7807;SDS011;3949;49.254;8.894;2023-09-08T07:36:46;5.87;;;4.73;;
7807;SDS011;3949;49.254;8.894;2023-09-08T07:39:12;5.10;;;4.60;;
7807;SDS011;3949;49.254;8.894;2023-09-08T07:41:38;7.73;;;4.87;;
7807;SDS011;3949;49.254;8.894;2023-09-08T07:44:05;5.53;;;5.00;;
7807;SDS011;3949;49.254;8.894;2023-09-08T07:46:32;6.37;;;5.40;;
7807;SDS011;3949;49.254;8.894;2023-09-08T07:48:58;5.83;;;4.50;;
7807;SDS011;3949;49.254;8.894;2023-09-08T07:51:24;5.00;;;4.50;;
7807;SDS011;3949;49.254;8.894;2023-09-08T07:53:50;5.90;;;4.83;;
7807;SDS011;3949;49.254;8.894;2023-09-08T07:56:16;6.03;;;4.53;;
7807;SDS011;3949;49.254;8.894;2023-09-08T07:58:42;5.13;;;4.57;;
7807;SDS011;3949;49.254;8.894;2023-09-08T08:01:08;5.20;;;4.70;;
7807;SDS011;3949;49.254;8.894;2023-09-08T08:03:34;5.40;;;4.50;;
7807;SDS011;3949;49.254;8.894;2023-09-08T08:06:01;5.17;;;4.73;;
7807;SDS011;3949;49.254;8.894;2023-09-08T08:08:27;4.90;;;4.47;;
7807;SDS011;3949;49.254;8.894;2023-09-08T08:10:53;5.50;;;5.00;;
7807;SDS011;3949;49.254;8.894;2023-09-08T08:13:22;5.00;;;4.37;;
7807;SDS011;3949;49.254;8.894;2023-09-08T08:15:47;5.60;;;3.87;;
7807;SDS011;3949;49.254;8.894;2023-09-08T08:18:14;4.70;;;4.30;;
7807;SDS011;3949;49.254;8.894;2023-09-08T08:20:40;4.17;;;3.77;;
7807;SDS011;3949;49.254;8.894;2023-09-08T08:23:06;4.43;;;4.10;;
7807;SDS011;3949;49.254;8.894;2023-09-08T08:25:32;4.50;;;4.10;;
7807;SDS011;3949;49.254;8.894;2023-09-08T08:27:59;8.40;;;7.00;;
7807;SDS011;3949;49.254;8.894;2023-09-08T08:30:26;5.05;;;3.83;;
7807;SDS011;3949;49.254;8.894;2023-09-08T08:32:52;4.78;;;4.43;;
7807;SDS011;3949;49.254;8.894;2023-09-08T08:35:18;5.63;;;4.53;;
7807;SDS011;3949;49.254;8.894;2023-09-08T08:37:45;5.38;;;4.43;;
7807;SDS011;3949;49.254;8.894;2023-09-08T08:40:11;4.35;;;4.03;;
7807;SDS011;3949;49.254;8.894;2023-09-08T08:42:40;4.90;;;4.38;;
7807;SDS011;3949;49.254;8.894;2023-09-08T08:45:07;4.38;;;4.07;;
7807;SDS011;3949;49.254;8.894;2023-09-08T08:47:33;5.40;;;4.90;;
7807;SDS011;3949;49.254;8.894;2023-09-08T08:50:00;4.65;;;4.25;;
7807;SDS011;3949;49.254;8.894;2023-09-08T08:52:26;3.97;;;3.60;;
7807;SDS011;3949;49.254;8.894;2023-09-08T08:54:52;4.82;;;4.43;;
7807;SDS011;3949;49.254;8.894;2023-09-08T08:57:19;4.22;;;3.83;;
7807;SDS011;3949;49.254;8.894;2023-09-08T08:59:46;4.50;;;4.10;;
7807;SDS011;3949;49.254;8.894;2023-09-08T09:02:13;4.22;;;3.83;;
7807;SDS011;3949;49.254;8.894;2023-09-08T09:04:39;4.70;;;4.30;;
7807;SDS011;3949;49.254;8.894;2023-09-08T09:07:07;4.38;;;3.97;;
7807;SDS011;3949;49.254;8.894;2023-09-08T09:09:33;4.40;;;3.97;;
7807;SDS011;3949;49.254;8.894;2023-09-08T09:11:59;4.50;;;4.10;;
7807;SDS011;3949;49.254;8.894;2023-09-08T09:14:27;4.20;;;3.90;;
7807;SDS011;3949;49.254;8.894;2023-09-08T09:16:55;5.10;;;3.90;;
7807;SDS011;3949;49.254;8.894;2023-09-08T09:19:22;4.18;;;3.80;;
7807;SDS011;3949;49.254;8.894;2023-09-08T09:21:56;5.05;;;4.18;;
7807;SDS011;3949;49.254;8.894;2023-09-08T09:24:30;4.03;;;3.60;;
7807;SDS011;3949;49.254;8.894;2023-09-08T09:26:57;4.82;;;4.47;;
7807;SDS011;3949;49.254;8.894;2023-09-08T09:29:24;4.00;;;3.70;;
7807;SDS011;3949;49.254;8.894;2023-09-08T09:31:57;4.70;;;4.30;;
7807;SDS011;3949;49.254;8.894;2023-09-08T09:34:24;4.32;;;4.03;;
7807;SDS011;3949;49.254;8.894;2023-09-08T09:36:51;4.90;;;4.50;;
7807;SDS011;3949;49.254;8.894;2023-09-08T09:39:17;4.28;;;3.80;;
7807;SDS011;3949;49.254;8.894;2023-09-08T09:41:44;3.67;;;3.40;;
7807;SDS011;3949;49.254;8.894;2023-09-08T09:44:10;9.55;;;8.63;;
7807;SDS011;3949;49.254;8.894;2023-09-08T09:46:36;5.10;;;4.55;;
7807;SDS011;3949;49.254;8.894;2023-09-08T09:49:02;4.65;;;4.22;;
7807;SDS011;3949;49.254;8.894;2023-09-08T09:51:31;4.47;;;3.65;;
7807;SDS011;3949;49.254;8.894;2023-09-08T09:53:57;3.92;;;3.58;;
7807;SDS011;3949;49.254;8.894;2023-09-08T09:56:24;4.35;;;4.05;;
7807;SDS011;3949;49.254;8.894;2023-09-08T09:58:52;4.10;;;3.53;;
7807;SDS011;3949;49.254;8.894;2023-09-08T10:01:19;5.88;;;5.18;;
7807;SDS011;3949;49.254;8.894;2023-09-08T10:03:45;4.80;;;3.95;;
7807;SDS011;3949;49.254;8.894;2023-09-08T10:06:12;4.50;;;4.10;;
7807;SDS011;3949;49.254;8.894;2023-09-08T10:08:38;4.50;;;4.10;;
7807;SDS011;3949;49.254;8.894;2023-09-08T10:11:05;4.15;;;3.85;;
7807;SDS011;3949;49.254;8.894;2023-09-08T10:13:33;4.18;;;3.85;;
7807;SDS011;3949;49.254;8.894;2023-09-08T10:16:03;4.75;;;4.00;;
7807;SDS011;3949;49.254;8.894;2023-09-08T10:18:30;4.80;;;4.15;;
7807;SDS011;3949;49.254;8.894;2023-09-08T10:20:57;4.28;;;3.88;;
7807;SDS011;3949;49.254;8.894;2023-09-08T10:25:52;4.20;;;3.80;;
7807;SDS011;3949;49.254;8.894;2023-09-08T10:28:19;3.83;;;3.47;;
7807;SDS011;3949;49.254;8.894;2023-09-08T10:30:47;4.30;;;4.00;;
7807;SDS011;3949;49.254;8.894;2023-09-08T10:33:13;4.53;;;4.13;;
7807;SDS011;3949;49.254;8.894;2023-09-08T10:35:40;4.18;;;3.83;;
7807;SDS011;3949;49.254;8.894;2023-09-08T10:40:51;4.72;;;4.32;;
7807;SDS011;3949;49.254;8.894;2023-09-08T10:43:18;4.20;;;3.80;;
7807;SDS011;3949;49.254;8.894;2023-09-08T10:45:45;4.55;;;4.15;;
7807;SDS011;3949;49.254;8.894;2023-09-08T10:48:11;4.38;;;3.95;;
7807;SDS011;3949;49.254;8.894;2023-09-08T10:50:39;4.20;;;3.88;;
7807;SDS011;3949;49.254;8.894;2023-09-08T10:53:16;4.20;;;3.90;;
7807;SDS011;3949;49.254;8.894;2023-09-08T10:55:43;3.83;;;3.53;;
7807;SDS011;3949;49.254;8.894;2023-09-08T10:58:16;3.97;;;3.67;;
7807;SDS011;3949;49.254;8.894;2023-09-08T11:00:44;4.60;;;4.15;;
7807;SDS011;3949;49.254;8.894;2023-09-08T11:03:11;4.30;;;3.90;;
7807;SDS011;3949;49.254;8.894;2023-09-08T11:05:37;4.05;;;3.75;;
7807;SDS011;3949;49.254;8.894;2023-09-08T11:08:03;4.07;;;3.72;;
7807;SDS011;3949;49.254;8.894;2023-09-08T11:10:30;7.18;;;5.13;;
7807;SDS011;3949;49.254;8.894;2023-09-08T11:12:56;4.22;;;3.88;;
7807;SDS011;3949;49.254;8.894;2023-09-08T11:15:22;4.85;;;4.45;;
7807;SDS011;3949;49.254;8.894;2023-09-08T11:17:48;4.00;;;3.70;;
7807;SDS011;3949;49.254;8.894;2023-09-08T11:20:16;3.90;;;3.60;;
7807;SDS011;3949;49.254;8.894;2023-09-08T11:22:42;4.97;;;3.60;;
7807;SDS011;3949;49.254;8.894;2023-09-08T11:25:10;4.20;;;3.90;;
7807;SDS011;3949;49.254;8.894;2023-09-08T11:27:37;3.95;;;3.65;;
7807;SDS011;3949;49.254;8.894;2023-09-08T11:30:05;4.03;;;3.65;;
7807;SDS011;3949;49.254;8.894;2023-09-08T11:32:32;4.57;;;4.18;;
7807;SDS011;3949;49.254;8.894;2023-09-08T11:35:03;4.18;;;3.80;;
7807;SDS011;3949;49.254;8.894;2023-09-08T11:37:30;4.32;;;4.03;;
7807;SDS011;3949;49.254;8.894;2023-09-08T11:39:56;3.83;;;3.50;;
7807;SDS011;3949;49.254;8.894;2023-09-08T11:42:22;4.65;;;4.28;;
7807;SDS011;3949;49.254;8.894;2023-09-08T11:44:49;4.15;;;3.85;;
7807;SDS011;3949;49.254;8.894;2023-09-08T11:47:15;5.03;;;3.72;;
7807;SDS011;3949;49.254;8.894;2023-09-08T11:49:41;4.07;;;3.63;;
7807;SDS011;3949;49.254;8.894;2023-09-08T11:52:09;4.47;;;3.70;;
7807;SDS011;3949;49.254;8.894;2023-09-08T11:54:36;4.95;;;4.47;;
7807;SDS011;3949;49.254;8.894;2023-09-08T11:57:03;5.93;;;3.67;;
7807;SDS011;3949;49.254;8.894;2023-09-08T11:59:33;4.13;;;3.60;;
7807;SDS011;3949;49.254;8.894;2023-09-08T12:01:59;4.57;;;3.75;;
7807;SDS011;3949;49.254;8.894;2023-09-08T12:04:25;4.13;;;3.72;;
7807;SDS011;3949;49.254;8.894;2023-09-08T12:06:52;4.57;;;4.18;;
7807;SDS011;3949;49.254;8.894;2023-09-08T12:09:18;4.10;;;3.70;;
7807;SDS011;3949;49.254;8.894;2023-09-08T12:11:44;3.65;;;3.35;;
7807;SDS011;3949;49.254;8.894;2023-09-08T12:14:11;4.20;;;3.80;;
7807;SDS011;3949;49.254;8.894;2023-09-08T12:16:37;5.03;;;3.83;;
7807;SDS011;3949;49.254;8.894;2023-09-08T12:19:03;4.00;;;3.60;;
7807;SDS011;3949;49.254;8.894;2023-09-08T12:21:29;4.07;;;3.78;;
7807;SDS011;3949;49.254;8.894;2023-09-08T12:23:57;4.22;;;3.90;;
7807;SDS011;3949;49.254;8.894;2023-09-08T12:26:26;3.95;;;3.60;;
7807;SDS011;3949;49.254;8.894;2023-09-08T12:28:52;4.20;;;3.90;;
7807;SDS011;3949;49.254;8.894;2023-09-08T12:31:18;4.15;;;3.75;;
7807;SDS011;3949;49.254;8.894;2023-09-08T12:33:46;3.97;;;3.58;;
7807;SDS011;3949;49.254;8.894;2023-09-08T12:38:38;4.57;;;4.18;;
7807;SDS011;3949;49.254;8.894;2023-09-08T12:41:04;4.75;;;3.70;;
7807;SDS011;3949;49.254;8.894;2023-09-08T12:43:30;3.80;;;3.60;;
7807;SDS011;3949;49.254;8.894;2023-09-08T12:45:56;3.80;;;3.53;;
7807;SDS011;3949;49.254;8.894;2023-09-08T12:48:22;3.75;;;3.45;;
7807;SDS011;3949;49.254;8.894;2023-09-08T12:50:48;4.35;;;3.95;;
7807;SDS011;3949;49.254;8.894;2023-09-08T12:53:14;4.22;;;3.80;;
7807;SDS011;3949;49.254;8.894;2023-09-08T12:55:41;4.07;;;3.70;;
7807;SDS011;3949;49.254;8.894;2023-09-08T12:58:07;4.55;;;4.15;;
7807;SDS011;3949;49.254;8.894;2023-09-08T13:00:33;4.97;;;4.38;;
7807;SDS011;3949;49.254;8.894;2023-09-08T13:03:00;4.20;;;3.90;;
7807;SDS011;3949;49.254;8.894;2023-09-08T13:05:27;6.13;;;4.05;;
7807;SDS011;3949;49.254;8.894;2023-09-08T13:07:53;4.28;;;3.92;;
7807;SDS011;3949;49.254;8.894;2023-09-08T13:10:19;4.50;;;4.10;;
7807;SDS011;3949;49.254;8.894;2023-09-08T13:12:45;4.90;;;3.60;;
7807;SDS011;3949;49.254;8.894;2023-09-08T13:15:13;3.80;;;3.50;;
7807;SDS011;3949;49.254;8.894;2023-09-08T13:17:39;4.20;;;3.90;;
7807;SDS011;3949;49.254;8.894;2023-09-08T13:20:05;4.60;;;4.20;;
7807;SDS011;3949;49.254;8.894;2023-09-08T13:22:31;4.13;;;3.72;;
7807;SDS011;3949;49.254;8.894;2023-09-08T13:24:57;4.47;;;4.07;;
7807;SDS011;3949;49.254;8.894;2023-09-08T13:27:23;3.75;;;3.45;;
7807;SDS011;3949;49.254;8.894;2023-09-08T13:29:49;3.88;;;3.58;;
7807;SDS011;3949;49.254;8.894;2023-09-08T13:32:15;3.90;;;3.60;;
7807;SDS011;3949;49.254;8.894;2023-09-08T13:34:41;4.90;;;3.58;;
7807;SDS011;3949;49.254;8.894;2023-09-08T13:37:08;4.60;;;3.95;;
7807;SDS011;3949;49.254;8.894;2023-09-08T13:39:34;3.90;;;3.65;;
7807;SDS011;3949;49.254;8.894;2023-09-08T13:42:01;4.50;;;4.10;;
7807;SDS011;3949;49.254;8.894;2023-09-08T13:44:27;4.18;;;3.63;;
7807;SDS011;3949;49.254;8.894;2023-09-08T13:46:53;4.10;;;3.80;;
7807;SDS011;3949;49.254;8.894;2023-09-08T13:49:20;4.00;;;3.58;;
7807;SDS011;3949;49.254;8.894;2023-09-08T13:51:47;3.90;;;3.60;;
7807;SDS011;3949;49.254;8.894;2023-09-08T13:54:16;3.85;;;3.55;;
7807;SDS011;3949;49.254;8.894;2023-09-08T13:56:42;4.38;;;3.97;;
7807;SDS011;3949;49.254;8.894;2023-09-08T13:59:08;5.05;;;3.97;;
7807;SDS011;3949;49.254;8.894;2023-09-08T14:01:35;4.07;;;3.78;;
7807;SDS011;3949;49.254;8.894;2023-09-08T14:04:01;3.92;;;3.63;;
7807;SDS011;3949;49.254;8.894;2023-09-08T14:06:28;4.60;;;4.20;;
7807;SDS011;3949;49.254;8.894;2023-09-08T14:08:54;4.10;;;3.70;;
7807;SDS011;3949;49.254;8.894;2023-09-08T14:11:21;4.13;;;3.72;;
7807;SDS011;3949;49.254;8.894;2023-09-08T14:13:47;3.63;;;3.42;;
7807;SDS011;3949;49.254;8.894;2023-09-08T14:16:13;3.90;;;3.60;;
7807;SDS011;3949;49.254;8.894;2023-09-08T14:18:39;4.45;;;3.70;;
7807;SDS011;3949;49.254;8.894;2023-09-08T14:21:06;6.00;;;3.40;;
7807;SDS011;3949;49.254;8.894;2023-09-08T14:23:32;3.92;;;3.63;;
7807;SDS011;3949;49.254;8.894;2023-09-08T14:26:05;4.28;;;3.38;;
7807;SDS011;3949;49.254;8.894;2023-09-08T14:28:32;3.80;;;3.50;;
7807;SDS011;3949;49.254;8.894;2023-09-08T14:30:59;4.20;;;3.90;;
7807;SDS011;3949;49.254;8.894;2023-09-08T14:33:25;4.20;;;3.90;;
7807;SDS011;3949;49.254;8.894;2023-09-08T14:35:51;3.90;;;3.60;;
7807;SDS011;3949;49.254;8.894;2023-09-08T14:38:18;5.43;;;4.45;;
7807;SDS011;3949;49.254;8.894;2023-09-08T14:40:44;5.10;;;4.55;;
7807;SDS011;3949;49.254;8.894;2023-09-08T14:43:11;4.20;;;3.80;;
7807;SDS011;3949;49.254;8.894;2023-09-08T14:45:37;3.90;;;3.60;;
7807;SDS011;3949;49.254;8.894;2023-09-08T14:48:03;4.70;;;4.30;;
7807;SDS011;3949;49.254;8.894;2023-09-08T14:50:30;4.00;;;3.70;;
7807;SDS011;3949;49.254;8.894;2023-09-08T14:52:56;4.05;;;3.72;;
7807;SDS011;3949;49.254;8.894;2023-09-08T14:55:24;3.60;;;3.30;;
7807;SDS011;3949;49.254;8.894;2023-09-08T14:57:50;3.85;;;3.55;;
7807;SDS011;3949;49.254;8.894;2023-09-08T15:00:16;4.18;;;3.88;;
7807;SDS011;3949;49.254;8.894;2023-09-08T15:02:42;3.95;;;3.60;;
7807;SDS011;3949;49.254;8.894;2023-09-08T15:05:08;6.97;;;3.65;;
7807;SDS011;3949;49.254;8.894;2023-09-08T15:07:34;3.67;;;3.38;;
7807;SDS011;3949;49.254;8.894;2023-09-08T15:10:00;4.22;;;3.83;;
7807;SDS011;3949;49.254;8.894;2023-09-08T15:12:26;4.40;;;4.00;;
7807;SDS011;3949;49.254;8.894;2023-09-08T15:14:52;3.80;;;3.50;;
7807;SDS011;3949;49.254;8.894;2023-09-08T15:17:18;4.55;;;4.25;;
7807;SDS011;3949;49.254;8.894;2023-09-08T15:19:44;4.90;;;3.78;;
7807;SDS011;3949;49.254;8.894;2023-09-08T15:22:10;4.55;;;4.07;;
7807;SDS011;3949;49.254;8.894;2023-09-08T15:24:37;4.75;;;4.00;;